Time;durP1;ratioP1;P1;durP2;ratioP2;P2;SDS_P1;SDS_P2;PMS_P1;PMS_P2;Temp;Humidity;BMP_temperature;BMP_pressure;BME280_temperature;BME280_humidity;BME280_pressure;Samples;Min_cycle;Max_cycle;Signal;HPM_P1;HPM_P2
2022/08/26 00:01:02;;;;;;;;;;;;;;;24.56;60.51;99381.50;4425917;32;23673;-90
2022/08/26 00:03:27;;;;;;;;;;;;;;;24.53;60.51;99386.28;4440515;32;19989;-89
2022/08/26 00:05:52;;;;;;;;;;;;;;;24.57;60.51;99377.84;4446728;32;19997;-90
2022/08/26 00:08:18;;;;;;;;;;;;;;;24.77;60.52;99376.75;4428409;32;19969;-90
2022/08/26 00:10:43;;;;;;;;;;;;;;;24.77;60.52;99384.75;4441061;32;19989;-89
2022/08/26 00:13:09;;;;;;;;;;;;;;;24.74;60.51;99378.88;4453343;32;20041;-88
2022/08/26 00:15:34;;;;;;;;;;;;;;;24.61;60.51;99386.41;4440031;32;20010;-89
2022/08/26 00:18:00;;;;;;;;;;;;;;;24.62;60.51;99372.09;4440145;32;19995;-89
2022/08/26 00:20:26;;;;;;;;;;;;;;;24.70;60.52;99386.34;4440111;32;23943;-88
2022/08/26 00:22:51;;;;;;;;;;;;;;;24.58;60.51;99379.53;4440716;32;20023;-90
2022/08/26 00:25:16;;;;;;;;;;;;;;;24.53;60.51;99367.66;4440439;32;20351;-89
2022/08/26 00:27:42;;;;;;;;;;;;;;;24.67;60.51;99375.16;4427847;32;20704;-89
2022/08/26 00:30:09;;;;;;;;;;;;;;;24.48;60.51;99382.22;4440476;32;20003;-89
2022/08/26 00:32:34;;;;;;;;;;;;;;;24.50;60.51;99376.75;4440704;32;20000;-89
2022/08/26 00:34:59;;;;;;;;;;;;;;;24.52;60.50;99379.28;4450905;32;19993;-90
2022/08/26 00:37:25;;;;;;;;;;;;;;;24.50;60.50;99376.75;4437835;32;20335;-89
2022/08/26 00:39:51;;;;;;;;;;;;;;;24.04;60.47;99374.94;4425836;32;23312;-89
2022/08/26 00:42:16;;;;;;;;;;;;;;;24.32;60.50;99373.19;4440799;32;20046;-87
2022/08/26 00:44:41;;;;;;;;;;;;;;;24.32;60.50;99374.03;4439843;32;25456;-88
2022/08/26 00:47:08;;;;;;;;;;;;;;;24.05;60.49;99372.12;4452868;32;25491;-88
2022/08/26 00:49:41;;;;;;;;;;;;;;;24.03;60.48;99363.47;4427821;32;20025;-88
2022/08/26 00:52:07;;;;;;;;;;;;;;;24.14;60.49;99363.31;4440761;32;20064;-89
2022/08/26 00:54:33;;;;;;;;;;;;;;;24.05;60.49;99366.81;4440610;32;20359;-89
2022/08/26 00:57:03;;;;;;;;;;;;;;;23.98;60.48;99364.88;4427619;32;19977;-88
2022/08/26 00:59:28;;;;;;;;;;;;;;;24.11;60.48;99365.38;4437565;32;19985;-89
2022/08/26 01:01:54;;;;;;;;;;;;;;;24.09;60.48;99360.22;4437384;32;25411;-89
2022/08/26 01:04:19;;;;;;;;;;;;;;;23.76;60.47;99371.34;4448177;32;19992;-88
2022/08/26 01:06:45;;;;;;;;;;;;;;;24.11;60.48;99366.22;4437931;32;19992;-88
2022/08/26 01:09:11;;;;;;;;;;;;;;;23.93;60.48;99365.31;4448456;32;19985;-88
2022/08/26 01:11:36;;;;;;;;;;;;;;;23.78;60.46;99364.91;4437822;32;20541;-89
2022/08/26 01:14:01;;;;;;;;;;;;;;;23.79;60.47;99360.44;4437428;32;20319;-87
2022/08/26 01:16:27;;;;;;;;;;;;;;;23.94;60.47;99364.34;4437768;32;20263;-88
2022/08/26 01:18:56;;;;;;;;;;;;;;;23.90;60.47;99365.59;4437888;32;19981;-87
2022/08/26 01:21:28;;;;;;;;;;;;;;;23.62;60.46;99371.78;4437825;32;20015;-89
2022/08/26 01:23:53;;;;;;;;;;;;;;;23.44;60.45;99359.19;4439222;32;19981;-88
2022/08/26 01:26:22;;;;;;;;;;;;;;;23.56;60.45;99365.22;4437765;32;20216;-88
2022/08/26 01:28:48;;;;;;;;;;;;;;;23.60;60.46;99360.44;4437722;32;20016;-87
2022/08/26 01:31:13;;;;;;;;;;;;;;;23.61;60.46;99351.50;4449006;32;20305;-88
2022/08/26 01:33:45;;;;;;;;;;;;;;;23.58;60.46;99360.59;4437843;32;19989;-88
2022/08/26 01:36:10;;;;;;;;;;;;;;;23.54;60.46;99359.16;4439883;32;20314;-88
2022/08/26 01:38:35;;;;;;;;;;;;;;;23.30;60.44;99356.09;4451061;32;19993;-88
2022/08/26 01:41:01;;;;;;;;;;;;;;;23.14;60.43;99359.28;4439758;32;28648;-89
2022/08/26 01:43:27;;;;;;;;;;;;;;;23.25;60.44;99353.87;4455517;32;20084;-89
2022/08/26 01:45:53;;;;;;;;;;;;;;;23.11;60.43;99356.91;4427867;32;19969;-90
2022/08/26 01:48:19;;;;;;;;;;;;;;;23.37;60.45;99355.41;4426166;32;20012;-89
2022/08/26 01:50:45;;;;;;;;;;;;;;;23.28;60.45;99351.78;4440168;32;20036;-89
2022/08/26 01:53:32;;;;;;;;;;;;;;;23.22;60.43;99352.34;4457118;32;19999;-95
2022/08/26 01:56:05;;;;;;;;;;;;;;;23.31;60.44;99352.47;4454639;32;20014;-94
2022/08/26 01:58:55;;;;;;;;;;;;;;;23.39;60.44;99358.75;4443234;32;20017;-93
2022/08/26 02:01:26;;;;;;;;;;;;;;;23.28;60.44;99357.09;4440203;32;20338;-95
2022/08/26 02:04:12;;;;;;;;;;;;;;;23.18;60.43;99361.53;4451275;32;19965;-94
2022/08/26 02:13:29;;;;;;;;;;;;;;;;;;;;;
2022/08/26 02:16:15;;;;;;;;;;;;;;;23.32;60.44;99352.31;4392568;32;36661;-93
2022/08/26 02:18:40;;;;;;;;;;;;;;;23.36;60.44;99353.72;4359947;32;19983;-92
2022/08/26 02:21:05;;;;;;;;;;;;;;;23.17;60.43;99348.41;4383945;32;19990;-91
2022/08/26 02:23:31;;;;;;;;;;;;;;;23.12;60.42;99347.97;4408721;32;20351;-93
2022/08/26 02:26:46;;;;;;;;;;;;;;;23.11;60.43;99347.13;4408724;32;20017;-94
2022/08/26 02:29:38;;;;;;;;;;;;;;;23.19;60.44;99355.28;4397064;32;20032;-94
2022/08/26 02:39:29;;;;;;;;;;;;;;;;;;;;;
2022/08/26 02:42:04;;;;;;;;;;;;;;;22.80;60.42;99356.97;4391491;32;19993;-96
2022/08/26 02:44:31;;;;;;;;;;;;;;;22.81;60.42;99352.50;4392880;32;20667;-95
2022/08/26 02:46:57;;;;;;;;;;;;;;;22.67;60.41;99351.06;4394498;32;20056;-95
2022/08/26 02:49:22;;;;;;;;;;;;;;;22.49;60.40;99360.66;4424132;32;20002;-95
2022/08/26 02:51:48;;;;;;;;;;;;;;;22.35;60.39;99356.56;4411376;32;19982;-94
2022/08/26 02:54:17;;;;;;;;;;;;;;;22.41;60.39;99360.47;4424003;32;20004;-96
2022/08/26 02:56:42;;;;;;;;;;;;;;;22.55;60.39;99353.00;4411600;32;20065;-95
2022/08/26 02:59:08;;;;;;;;;;;;;;;22.80;60.42;99350.84;4411533;32;19982;-95
2022/08/26 03:01:33;;;;;;;;;;;;;;;22.87;60.42;99352.00;4411439;32;19999;-95
2022/08/26 03:03:59;;;;;;;;;;;;;;;22.72;60.40;99351.53;4423680;32;20364;-94
2022/08/26 03:06:24;;;;;;;;;;;;;;;22.69;60.40;99349.12;4411672;32;19994;-95
2022/08/26 03:08:50;;;;;;;;;;;;;;;22.63;60.40;99347.84;4412271;32;19978;-94
2022/08/26 03:11:45;;;;;;;;;;;;;;;;;;;;;
2022/08/26 03:15:02;;;;;;;;;;;;;;;;;;;;;
2022/08/26 03:20:44;;;;;;;;;;;;;;;;;;;;;
2022/08/26 03:23:22;;;;;;;;;;;;;;;;;;;;;
2022/08/26 03:35:03;;;;;;;;;;;;;;;22.32;60.38;99335.63;4423048;32;19995;-95
2022/08/26 03:40:07;;;;;;;;;;;;;;;22.42;60.40;99340.94;4676934;26;19988;-91
2022/08/26 03:42:43;;;;;;;;;;;;;;;22.47;60.39;99339.56;4455028;32;19984;-92
2022/08/26 03:45:09;;;;;;;;;;;;;;;22.62;60.40;99332.91;4448417;32;20320;-93
2022/08/26 03:47:34;;;;;;;;;;;;;;;22.60;60.40;99336.69;4470517;32;20004;-90
2022/08/26 03:50:00;;;;;;;;;;;;;;;22.51;60.40;99338.34;4458066;32;19984;-92
2022/08/26 03:52:28;;;;;;;;;;;;;;;22.37;60.39;99338.69;4470692;32;20369;-93
2022/08/26 03:54:56;;;;;;;;;;;;;;;22.31;60.38;99339.25;4457970;32;19976;-92
2022/08/26 03:57:22;;;;;;;;;;;;;;;22.46;60.39;99345.84;4455622;32;19984;-92
2022/08/26 03:59:47;;;;;;;;;;;;;;;22.33;60.38;99339.94;4448739;32;20013;-89
2022/08/26 04:02:13;;;;;;;;;;;;;;;22.19;60.38;99343.78;4461154;32;19992;-88
2022/08/26 04:04:39;;;;;;;;;;;;;;;22.30;60.38;99338.41;4458406;32;20024;-89
2022/08/26 04:07:04;;;;;;;;;;;;;;;22.21;60.39;99335.69;4464815;32;20007;-88
2022/08/26 04:09:29;;;;;;;;;;;;;;;22.41;60.39;99334.81;4454076;32;20000;-88
2022/08/26 04:11:54;;;;;;;;;;;;;;;22.35;60.39;99335.34;4441234;32;19980;-87
2022/08/26 04:14:20;;;;;;;;;;;;;;;22.40;60.39;99338.44;4454171;32;19981;-88
2022/08/26 04:16:45;;;;;;;;;;;;;;;22.24;60.38;99336.28;4440985;32;20012;-87
2022/08/26 04:19:11;;;;;;;;;;;;;;;22.42;60.40;99343.59;4462165;32;19989;-88
2022/08/26 04:21:37;;;;;;;;;;;;;;;22.50;60.39;99341.97;4468338;32;19969;-85
2022/08/26 04:24:03;;;;;;;;;;;;;;;22.47;60.39;99338.72;4469822;32;20003;-86
2022/08/26 04:26:29;;;;;;;;;;;;;;;22.50;60.40;99336.66;4474202;32;19985;-87
2022/08/26 04:28:55;;;;;;;;;;;;;;;22.24;60.38;99338.94;4454838;32;20014;-87
2022/08/26 04:31:20;;;;;;;;;;;;;;;22.40;60.39;99343.72;4453709;32;20472;-87
2022/08/26 04:33:46;;;;;;;;;;;;;;;22.47;60.39;99346.69;4465881;32;20016;-86
2022/08/26 04:36:11;;;;;;;;;;;;;;;22.42;60.40;99343.59;4476841;32;19984;-87
2022/08/26 04:38:36;;;;;;;;;;;;;;;22.54;60.40;99346.03;4479045;32;19994;-86
2022/08/26 04:41:02;;;;;;;;;;;;;;;22.53;60.39;99333.75;4464196;32;20024;-88
2022/08/26 04:43:29;;;;;;;;;;;;;;;22.67;60.40;99337.81;4449295;32;19976;-87
2022/08/26 04:45:55;;;;;;;;;;;;;;;22.68;60.40;99337.66;4457427;32;19993;-90
2022/08/26 04:48:20;;;;;;;;;;;;;;;22.62;60.39;99334.72;4449409;32;20037;-89
2022/08/26 04:50:45;;;;;;;;;;;;;;;22.65;60.41;99347.72;4459613;32;20008;-86
2022/08/26 04:53:14;;;;;;;;;;;;;;;22.76;60.41;99337.00;4480662;32;22217;-89
2022/08/26 04:55:39;;;;;;;;;;;;;;;23.05;60.42;99333.59;4463636;32;20036;-91
2022/08/26 04:58:07;;;;;;;;;;;;;;;22.98;60.42;99332.47;4458988;32;20257;-89
2022/08/26 05:00:32;;;;;;;;;;;;;;;22.87;60.41;99344.03;4474813;32;19973;-88
2022/08/26 05:02:59;;;;;;;;;;;;;;;22.93;60.42;99341.66;4480986;32;21549;-88
2022/08/26 05:05:24;;;;;;;;;;;;;;;23.06;60.42;99336.09;4462296;32;20020;-89
2022/08/26 05:07:49;;;;;;;;;;;;;;;23.20;60.43;99335.72;4455757;32;20791;-89
2022/08/26 05:10:14;;;;;;;;;;;;;;;23.23;60.43;99334.59;4455961;32;20419;-88
2022/08/26 05:12:40;;;;;;;;;;;;;;;23.56;60.45;99336.81;4471269;32;19964;-87
2022/08/26 05:15:05;;;;;;;;;;;;;;;23.61;60.45;99336.38;4479795;32;20046;-89
2022/08/26 05:17:32;;;;;;;;;;;;;;;23.83;60.46;99333.41;4447701;32;20039;-88
2022/08/26 05:19:57;;;;;;;;;;;;;;;23.70;60.46;99340.88;4470093;32;20016;-88
2022/08/26 05:22:22;;;;;;;;;;;;;;;23.77;60.46;99341.12;4461633;32;21130;-88
2022/08/26 05:24:48;;;;;;;;;;;;;;;23.84;60.46;99335.09;4455739;32;30613;-89
2022/08/26 05:27:13;;;;;;;;;;;;;;;24.08;60.47;99331.94;4471656;32;20362;-89
2022/08/26 05:29:41;;;;;;;;;;;;;;;24.30;60.49;99329.94;4485698;32;20028;-89
2022/08/26 05:32:06;;;;;;;;;;;;;;;24.38;60.50;99333.56;4485720;32;20262;-89
2022/08/26 05:34:32;;;;;;;;;;;;;;;24.59;60.50;99329.78;4471525;32;19995;-88
2022/08/26 05:36:57;;;;;;;;;;;;;;;24.70;60.51;99327.78;4457709;32;27718;-89
2022/08/26 05:39:23;;;;;;;;;;;;;;;24.91;60.52;99332.00;4458290;32;19980;-89
2022/08/26 05:41:48;;;;;;;;;;;;;;;25.04;60.52;99332.47;4471278;32;19969;-89
2022/08/26 05:44:14;;;;;;;;;;;;;;;25.16;60.53;99327.78;4458142;32;19981;-88
2022/08/26 05:46:39;;;;;;;;;;;;;;;25.24;60.54;99338.50;4460396;32;19989;-89
2022/08/26 05:49:05;;;;;;;;;;;;;;;25.41;60.54;99340.34;4471326;32;20076;-89
2022/08/26 05:51:30;;;;;;;;;;;;;;;25.55;60.54;99337.13;4478097;32;19968;-89
2022/08/26 05:53:55;;;;;;;;;;;;;;;25.68;60.56;99342.06;4456123;32;20012;-89
2022/08/26 05:56:23;;;;;;;;;;;;;;;25.76;60.56;99342.12;4486448;32;19977;-89
2022/08/26 05:58:48;;;;;;;;;;;;;;;25.83;60.56;99340.53;4460874;32;19973;-88
2022/08/26 06:01:15;;;;;;;;;;;;;;;25.94;60.58;99345.59;4485474;32;19980;-89
2022/08/26 06:03:43;;;;;;;;;;;;;;;26.17;60.58;99345.06;4471482;32;19996;-90
2022/08/26 06:06:09;;;;;;;;;;;;;;;26.01;60.57;99346.63;4471632;32;20036;-89
2022/08/26 06:08:35;;;;;;;;;;;;;;;26.09;60.57;99347.69;4471533;32;19953;-89
2022/08/26 06:11:01;;;;;;;;;;;;;;;26.21;60.58;99341.91;4485734;32;19984;-89
2022/08/26 06:13:26;;;;;;;;;;;;;;;26.41;60.58;99345.22;4479192;32;19993;-89
2022/08/26 06:15:52;;;;;;;;;;;;;;;26.55;60.60;99341.94;4453851;32;19995;-89
2022/08/26 06:18:18;;;;;;;;;;;;;;;26.55;60.60;99343.78;4471431;32;19985;-89
2022/08/26 06:20:43;;;;;;;;;;;;;;;26.38;60.59;99348.22;4471399;32;20288;-89
2022/08/26 06:25:56;;;;;;;;;;;;;;;26.71;60.61;99340.31;4473983;32;20091;-89
2022/08/26 06:28:23;;;;;;;;;;;;;;;26.73;60.60;99343.66;4472037;32;19977;-88
2022/08/26 06:30:49;;;;;;;;;;;;;;;26.79;60.61;99349.22;4464393;32;20026;-88
2022/08/26 06:33:14;;;;;;;;;;;;;;;26.95;60.62;99344.87;4469077;32;19992;-88
2022/08/26 06:35:40;;;;;;;;;;;;;;;27.40;60.64;99344.50;4471309;32;19998;-87
2022/08/26 06:38:05;;;;;;;;;;;;;;;27.53;60.65;99343.00;4485390;32;19976;-88
2022/08/26 06:40:30;;;;;;;;;;;;;;;27.82;60.66;99347.84;4485281;32;20270;-88
2022/08/26 06:42:56;;;;;;;;;;;;;;;27.86;60.67;99343.00;4471041;32;20001;-88
2022/08/26 06:45:21;;;;;;;;;;;;;;;27.88;60.67;99338.31;4469813;32;19973;-88
2022/08/26 06:47:46;;;;;;;;;;;;;;;28.06;60.67;99348.81;4477685;32;24678;-88
2022/08/26 06:50:11;;;;;;;;;;;;;;;28.22;60.68;99343.44;4470602;32;22166;-87
2022/08/26 06:52:36;;;;;;;;;;;;;;;28.31;60.69;99337.06;4466333;32;20278;-88
2022/08/26 06:55:02;;;;;;;;;;;;;;;28.49;60.70;99338.69;4454740;32;24286;-87
2022/08/26 06:57:27;;;;;;;;;;;;;;;28.70;60.70;99338.91;4471240;32;20052;-87
2022/08/26 06:59:53;;;;;;;;;;;;;;;28.65;60.71;99339.44;4470185;32;19980;-86
2022/08/26 07:02:18;;;;;;;;;;;;;;;28.72;60.72;99339.56;4483868;32;31902;-88
2022/08/26 07:04:43;;;;;;;;;;;;;;;28.82;60.73;99334.81;4470783;32;20307;-87
2022/08/26 07:07:12;;;;;;;;;;;;;;;29.03;60.73;99332.38;4470026;32;19991;-89
2022/08/26 07:09:37;;;;;;;;;;;;;;;28.97;60.73;99333.09;4470460;32;20017;-89
2022/08/26 07:12:03;;;;;;;;;;;;;;;29.03;60.73;99327.03;4470025;32;20377;-89
2022/08/26 07:14:28;;;;;;;;;;;;;;;29.22;60.74;99331.09;4457234;32;20000;-88
2022/08/26 07:16:53;;;;;;;;;;;;;;;29.37;60.75;99325.78;4470090;32;21942;-89
2022/08/26 07:19:18;;;;;;;;;;;;;;;29.38;60.75;99335.50;4470528;32;20256;-88
2022/08/26 07:21:43;;;;;;;;;;;;;;;29.41;60.74;99332.47;4470395;32;19984;-89
2022/08/26 07:24:09;;;;;;;;;;;;;;;29.56;60.75;99335.19;4484612;32;19977;-89
2022/08/26 07:26:34;;;;;;;;;;;;;;;29.48;60.75;99336.09;4473336;32;19977;-87
2022/08/26 07:29:00;;;;;;;;;;;;;;;29.46;60.76;99340.00;4476024;32;21736;-88
2022/08/26 07:31:25;;;;;;;;;;;;;;;29.62;60.76;99334.50;4444037;32;20051;-87
2022/08/26 07:33:51;;;;;;;;;;;;;;;29.69;60.77;99338.09;4463874;32;20246;-88
2022/08/26 07:36:16;;;;;;;;;;;;;;;29.70;60.78;99328.22;4454816;32;20299;-88
2022/08/26 07:38:43;;;;;;;;;;;;;;;29.71;60.77;99330.72;4473904;32;19980;-88
2022/08/26 07:41:08;;;;;;;;;;;;;;;29.83;60.78;99331.94;4469981;32;19996;-89
2022/08/26 07:43:34;;;;;;;;;;;;;;;29.82;60.77;99335.66;4469928;32;20020;-88
2022/08/26 07:45:59;;;;;;;;;;;;;;;30.10;60.79;99335.06;4469539;32;20018;-88
2022/08/26 07:48:24;;;;;;;;;;;;;;;30.05;60.79;99338.31;4467536;32;26312;-88
2022/08/26 07:50:51;;;;;;;;;;;;;;;30.07;60.79;99340.78;4466514;32;20004;-87
2022/08/26 07:53:16;;;;;;;;;;;;;;;30.13;60.80;99340.06;4476226;32;20009;-88
2022/08/26 07:55:42;;;;;;;;;;;;;;;30.15;60.79;99333.47;4479132;32;19980;-86
2022/08/26 07:58:07;;;;;;;;;;;;;;;30.07;60.79;99336.25;4474794;32;20018;-88
2022/08/26 08:00:32;;;;;;;;;;;;;;;30.11;60.79;99337.56;4472922;32;19988;-86
2022/08/26 08:02:58;;;;;;;;;;;;;;;30.29;60.79;99328.31;4469949;32;20034;-86
2022/08/26 08:05:24;;;;;;;;;;;;;;;30.38;60.81;99321.81;4469644;32;20269;-88
2022/08/26 08:07:50;;;;;;;;;;;;;;;30.37;60.81;99333.56;4474103;32;19964;-86
2022/08/26 08:10:16;;;;;;;;;;;;;;;30.51;60.81;99335.38;4476347;32;20231;-88
2022/08/26 08:12:41;;;;;;;;;;;;;;;30.49;60.81;99334.75;4479803;32;19976;-89
2022/08/26 08:15:07;;;;;;;;;;;;;;;30.54;60.82;99329.66;4466959;32;20396;-89
2022/08/26 08:17:33;;;;;;;;;;;;;;;30.53;60.81;99330.69;4458829;32;20218;-89
2022/08/26 08:19:58;;;;;;;;;;;;;;;30.73;60.83;99328.25;4466869;32;20044;-89
2022/08/26 08:22:24;;;;;;;;;;;;;;;30.87;60.84;99322.03;4456002;32;20045;-88
2022/08/26 08:24:49;;;;;;;;;;;;;;;31.17;60.85;99317.41;4473302;32;19988;-88
2022/08/26 08:27:14;;;;;;;;;;;;;;;31.30;60.85;99316.72;4471686;32;19988;-88
2022/08/26 08:29:40;;;;;;;;;;;;;;;31.41;60.86;99316.16;4471358;32;24030;-88
2022/08/26 08:32:05;;;;;;;;;;;;;;;31.49;60.87;99307.16;4486255;32;20066;-88
2022/08/26 08:34:31;;;;;;;;;;;;;;;31.76;60.88;99306.34;4486211;32;19992;-88
2022/08/26 08:36:56;;;;;;;;;;;;;;;31.82;60.88;99310.13;4471700;32;20301;-87
2022/08/26 08:39:21;;;;;;;;;;;;;;;31.79;60.87;99310.50;4486285;32;20019;-88
2022/08/26 08:41:59;;;;;;;;;;;;;;;31.90;60.88;99308.09;4471739;32;20499;-88
2022/08/26 08:44:24;;;;;;;;;;;;;;;32.15;60.90;99308.44;4472043;32;19984;-88
2022/08/26 08:46:50;;;;;;;;;;;;;;;32.34;60.90;99306.94;4471819;32;19976;-88
2022/08/26 08:49:16;;;;;;;;;;;;;;;32.52;60.92;99307.22;4471904;32;20040;-88
2022/08/26 08:51:41;;;;;;;;;;;;;;;32.47;60.92;99316.94;4471185;32;20007;-87
2022/08/26 08:54:06;;;;;;;;;;;;;;;32.76;60.93;99308.56;4458056;32;19993;-88
2022/08/26 08:56:34;;;;;;;;;;;;;;;32.79;60.93;99294.69;4464387;32;20006;-88
2022/08/26 08:59:02;;;;;;;;;;;;;;;33.01;60.94;99300.75;4455884;32;19977;-88
2022/08/26 09:01:39;;;;;;;;;;;;;;;33.16;60.94;99295.19;4465537;32;19993;-88
2022/08/26 09:04:17;;;;;;;;;;;;;;;33.27;60.96;99294.56;4469957;32;20015;-87
2022/08/26 09:06:42;;;;;;;;;;;;;;;33.45;60.96;99288.59;4476887;32;20372;-87
2022/08/26 09:09:07;;;;;;;;;;;;;;;33.52;60.97;99286.72;4470127;32;30862;-87
2022/08/26 09:11:33;;;;;;;;;;;;;;;33.20;60.95;99285.66;4466414;32;19989;-88
2022/08/26 09:13:58;;;;;;;;;;;;;;;33.25;60.96;99278.59;4455629;32;19977;-87
2022/08/26 09:16:26;;;;;;;;;;;;;;;33.43;60.97;99282.59;4472525;32;21760;-87
2022/08/26 09:19:13;;;;;;;;;;;;;;;33.64;60.97;99287.75;4477222;32;19996;-87
2022/08/26 09:21:38;;;;;;;;;;;;;;;33.92;60.99;99281.31;4455693;32;20008;-87
2022/08/26 09:24:03;;;;;;;;;;;;;;;34.09;60.99;99277.13;4469934;32;19973;-87
2022/08/26 09:26:40;;;;;;;;;;;;;;;34.07;60.99;99271.06;4481071;32;19973;-86
2022/08/26 09:29:09;;;;;;;;;;;;;;;34.32;61.00;99265.81;4462541;32;20007;-86
2022/08/26 09:31:35;;;;;;;;;;;;;;;34.10;61.00;99268.81;4466644;32;19980;-86
2022/08/26 09:34:06;;;;;;;;;;;;;;;34.30;61.01;99268.72;4463732;32;20056;-87
2022/08/26 09:36:34;;;;;;;;;;;;;;;34.44;61.02;99267.66;4471853;32;20033;-87
2022/08/26 09:38:59;;;;;;;;;;;;;;;34.50;61.01;99268.66;4471117;32;19996;-87
2022/08/26 09:41:26;;;;;;;;;;;;;;;34.69;61.03;99266.91;4470222;32;26483;-87
2022/08/26 09:44:10;;;;;;;;;;;;;;;34.71;61.03;99259.41;4453243;32;20007;-87
2022/08/26 09:46:35;;;;;;;;;;;;;;;34.84;61.03;99255.81;4457287;32;20034;-88
2022/08/26 09:49:18;;;;;;;;;;;;;;;34.88;61.04;99252.47;4465434;32;28286;-87
2022/08/26 09:51:43;;;;;;;;;;;;;;;34.96;61.04;99256.78;4454891;32;19996;-87
2022/08/26 09:54:08;;;;;;;;;;;;;;;34.80;61.03;99260.81;4459581;32;27464;-87
2022/08/26 09:56:37;;;;;;;;;;;;;;;34.96;61.04;99252.19;4458444;32;20310;-88
2022/08/26 09:59:02;;;;;;;;;;;;;;;35.09;61.04;99251.28;4471332;32;19992;-87
2022/08/26 10:01:30;;;;;;;;;;;;;;;35.34;61.06;99249.44;4471205;32;19995;-87
2022/08/26 10:04:05;;;;;;;;;;;;;;;35.40;61.07;99258.53;4485388;32;19985;-86
2022/08/26 10:06:33;;;;;;;;;;;;;;;35.38;61.06;99252.53;4455461;32;19992;-86
2022/08/26 10:08:58;;;;;;;;;;;;;;;35.52;61.07;99245.97;4455840;32;20048;-86
2022/08/26 10:11:26;;;;;;;;;;;;;;;35.62;61.07;99246.25;4444061;32;19993;-86
2022/08/26 10:13:55;;;;;;;;;;;;;;;35.59;61.07;99235.88;4448961;32;20029;-88
2022/08/26 10:16:22;;;;;;;;;;;;;;;35.65;61.07;99242.28;4473533;32;19987;-85
2022/08/26 10:18:50;;;;;;;;;;;;;;;35.83;61.09;99241.50;4485516;32;20006;-86
2022/08/26 10:21:23;;;;;;;;;;;;;;;35.89;61.08;99240.59;4485323;32;19988;-87
2022/08/26 10:23:49;;;;;;;;;;;;;;;35.97;61.10;99235.72;4458095;32;20024;-87
2022/08/26 10:26:31;;;;;;;;;;;;;;;36.15;61.10;99232.16;4485386;32;20033;-88
2022/08/26 10:29:00;;;;;;;;;;;;;;;36.24;61.11;99228.09;4471031;32;20059;-87
2022/08/26 10:31:28;;;;;;;;;;;;;;;36.38;61.10;99225.25;4470710;32;20344;-87
2022/08/26 10:33:54;;;;;;;;;;;;;;;36.45;61.11;99224.13;4485426;32;19976;-87
2022/08/26 10:39:03;;;;;;;;;;;;;;;36.41;61.12;99227.47;4473012;32;20029;-88
2022/08/26 10:41:30;;;;;;;;;;;;;;;36.53;61.11;99231.09;4470267;32;19992;-88
2022/08/26 10:43:59;;;;;;;;;;;;;;;36.62;61.12;99224.28;4485013;32;19988;-88
2022/08/26 10:46:35;;;;;;;;;;;;;;;36.64;61.12;99222.16;4485110;32;19981;-89
2022/08/26 10:49:00;;;;;;;;;;;;;;;36.69;61.13;99216.87;4470941;32;19984;-88
2022/08/26 10:51:30;;;;;;;;;;;;;;;36.83;61.13;99217.53;4470521;32;20053;-88
2022/08/26 10:53:56;;;;;;;;;;;;;;;36.71;61.13;99208.53;4458829;32;19981;-88
2022/08/26 10:56:27;;;;;;;;;;;;;;;36.85;61.13;99207.28;4455012;32;20577;-88
2022/08/26 10:58:52;;;;;;;;;;;;;;;37.08;61.14;99201.88;4480148;32;20329;-88
2022/08/26 11:01:42;;;;;;;;;;;;;;;37.14;61.15;99208.25;4473991;32;20024;-88
2022/08/26 11:04:13;;;;;;;;;;;;;;;37.30;61.16;99209.50;4473781;32;19980;-89
2022/08/26 11:06:39;;;;;;;;;;;;;;;37.49;61.16;99206.44;4478464;32;20025;-88
2022/08/26 11:09:05;;;;;;;;;;;;;;;37.54;61.16;99203.00;4459102;32;20028;-88
2022/08/26 11:11:39;;;;;;;;;;;;;;;37.44;61.17;99203.59;4470557;32;20356;-88
2022/08/26 11:14:05;;;;;;;;;;;;;;;37.55;61.17;99206.53;4474415;32;20443;-88
2022/08/26 11:16:31;;;;;;;;;;;;;;;37.47;61.16;99200.41;4480830;32;20005;-88
2022/08/26 11:18:56;;;;;;;;;;;;;;;37.53;61.17;99198.63;4462780;32;20031;-88
2022/08/26 11:21:42;;;;;;;;;;;;;;;37.71;61.18;99189.53;4475578;32;19980;-89
2022/08/26 11:24:07;;;;;;;;;;;;;;;37.68;61.18;99193.53;4477262;32;20085;-89
2022/08/26 11:26:33;;;;;;;;;;;;;;;37.73;61.17;99196.41;4480357;32;19978;-89
2022/08/26 11:28:58;;;;;;;;;;;;;;;37.78;61.18;99193.78;4462346;32;19969;-89
2022/08/26 11:31:24;;;;;;;;;;;;;;;37.75;61.17;99188.00;4469722;32;36006;-89
2022/08/26 11:33:52;;;;;;;;;;;;;;;37.72;61.17;99186.59;4478179;32;20030;-88
2022/08/26 11:36:32;;;;;;;;;;;;;;;37.83;61.18;99178.66;4479886;32;19994;-88
2022/08/26 11:38:57;;;;;;;;;;;;;;;37.90;61.18;99177.47;4475504;32;20647;-89
2022/08/26 11:41:27;;;;;;;;;;;;;;;37.99;61.19;99175.19;4473257;32;19992;-90
2022/08/26 11:43:53;;;;;;;;;;;;;;;37.64;61.17;99186.94;4471017;32;19990;-88
2022/08/26 11:46:22;;;;;;;;;;;;;;;37.64;61.18;99181.50;4470313;32;19996;-87
2022/08/26 11:48:47;;;;;;;;;;;;;;;37.47;61.16;99170.53;4470193;32;20500;-89
2022/08/26 11:51:19;;;;;;;;;;;;;;;37.25;61.15;99169.50;4469836;32;21282;-90
2022/08/26 11:53:44;;;;;;;;;;;;;;;37.16;61.15;99165.44;4474926;32;19981;-90
2022/08/26 11:56:10;;;;;;;;;;;;;;;37.31;61.16;99163.09;4459060;32;19992;-90
2022/08/26 11:58:39;;;;;;;;;;;;;;;37.58;61.17;99155.28;4446957;32;793452;-87
2022/08/26 12:01:05;;;;;;;;;;;;;;;37.60;61.18;99160.47;4471716;32;20001;-87
2022/08/26 12:03:34;;;;;;;;;;;;;;;37.80;61.18;99158.22;4472035;32;19984;-89
2022/08/26 12:05:59;;;;;;;;;;;;;;;37.92;61.18;99147.34;4474322;32;19977;-88
2022/08/26 12:08:26;;;;;;;;;;;;;;;38.10;61.20;99144.44;4465164;32;20045;-87
2022/08/26 12:11:05;;;;;;;;;;;;;;;38.11;61.20;99150.72;4470184;32;20007;-88
2022/08/26 12:13:30;;;;;;;;;;;;;;;37.94;61.19;99147.91;4471590;32;20006;-89
2022/08/26 12:15:56;;;;;;;;;;;;;;;38.04;61.19;99143.50;4471490;32;20313;-87
2022/08/26 12:18:23;;;;;;;;;;;;;;;37.93;61.19;99149.00;4466826;32;20011;-87
2022/08/26 12:20:52;;;;;;;;;;;;;;;37.93;61.19;99138.94;4470094;32;20661;-88
2022/08/26 12:23:36;;;;;;;;;;;;;;;38.04;61.19;99135.34;4457046;32;19969;-87
2022/08/26 12:26:22;;;;;;;;;;;;;;;38.22;61.20;99134.38;4470522;32;19981;-88
2022/08/26 12:28:49;;;;;;;;;;;;;;;38.27;61.21;99120.84;4448593;32;20068;-88
2022/08/26 12:31:43;;;;;;;;;;;;;;;38.34;61.22;99120.72;4471495;32;20000;-87
2022/08/26 12:34:09;;;;;;;;;;;;;;;38.21;61.21;99119.13;4452066;32;20040;-87
2022/08/26 12:36:38;;;;;;;;;;;;;;;37.97;61.20;99118.38;4458346;32;19995;-87
2022/08/26 12:39:14;;;;;;;;;;;;;;;38.16;61.21;99116.28;4465078;32;20051;-87
2022/08/26 12:41:42;;;;;;;;;;;;;;;38.08;61.19;99116.66;4470124;32;20011;-89
2022/08/26 12:44:07;;;;;;;;;;;;;;;37.83;61.18;99118.88;4470352;32;20087;-88
2022/08/26 12:46:33;;;;;;;;;;;;;;;37.69;61.18;99112.88;4468911;32;20094;-89
2022/08/26 12:49:00;;;;;;;;;;;;;;;37.73;61.18;99105.94;4468808;32;20024;-85
2022/08/26 12:51:29;;;;;;;;;;;;;;;37.71;61.18;99103.47;4467517;32;20004;-86
2022/08/26 12:53:54;;;;;;;;;;;;;;;37.75;61.19;99103.78;4455822;32;19995;-86
2022/08/26 12:56:23;;;;;;;;;;;;;;;37.55;61.17;99097.91;4470495;32;19969;-86
2022/08/26 12:58:59;;;;;;;;;;;;;;;37.41;61.16;99100.91;4465983;32;20012;-85
2022/08/26 13:01:24;;;;;;;;;;;;;;;37.29;61.16;99107.41;4469160;32;20003;-87
2022/08/26 13:03:49;;;;;;;;;;;;;;;37.12;61.16;99101.84;4469125;32;19992;-86
2022/08/26 13:06:17;;;;;;;;;;;;;;;37.18;61.15;99098.19;4469733;32;19961;-85
2022/08/26 13:08:46;;;;;;;;;;;;;;;37.10;61.16;99096.63;4466333;32;20034;-87
2022/08/26 13:11:14;;;;;;;;;;;;;;;37.01;61.15;99095.34;4465573;32;20362;-86
2022/08/26 13:13:39;;;;;;;;;;;;;;;37.02;61.14;99094.31;4469747;32;19981;-86
2022/08/26 13:16:05;;;;;;;;;;;;;;;37.08;61.15;99087.09;4468187;32;19983;-86
2022/08/26 13:18:31;;;;;;;;;;;;;;;36.75;61.14;99085.78;4469230;32;20306;-85
2022/08/26 13:20:56;;;;;;;;;;;;;;;36.97;61.15;99079.78;4454132;32;36845;-86
2022/08/26 13:23:22;;;;;;;;;;;;;;;37.09;61.14;99081.44;4454510;32;20016;-86
2022/08/26 13:25:47;;;;;;;;;;;;;;;37.03;61.15;99079.66;4467661;32;20026;-86
2022/08/26 13:28:12;;;;;;;;;;;;;;;36.96;61.14;99081.69;4469053;32;20032;-86
2022/08/26 13:30:38;;;;;;;;;;;;;;;37.16;61.15;99071.28;4469410;32;20026;-85